createdAt,value
2022-10-22T00:00:15.921Z,15.83
2022-10-22T00:02:47.228Z,15.83
2022-10-22T00:05:18.693Z,15.82
2022-10-22T00:07:49.941Z,15.82
2022-10-22T00:10:21.277Z,15.83
2022-10-22T00:12:52.628Z,15.85
2022-10-22T00:15:24.114Z,15.86
2022-10-22T00:17:55.420Z,15.85
2022-10-22T00:20:26.740Z,15.83
2022-10-22T00:22:58.010Z,15.82
2022-10-22T00:25:29.392Z,15.83
2022-10-22T00:28:01.168Z,15.83
2022-10-22T00:30:32.510Z,15.77
2022-10-22T00:33:03.871Z,15.81
2022-10-22T00:35:35.288Z,15.78
2022-10-22T00:38:06.590Z,15.76
2022-10-22T00:40:37.861Z,15.77
2022-10-22T00:43:13.551Z,15.76
2022-10-22T00:45:45.553Z,15.74
2022-10-22T00:48:23.174Z,15.68
2022-10-22T00:50:58.673Z,15.60
2022-10-22T00:53:34.693Z,15.51
2022-10-22T00:56:06.158Z,15.42
2022-10-22T00:58:43.587Z,15.28
2022-10-22T01:01:21.426Z,15.14
2022-10-22T01:03:53.601Z,15.01
2022-10-22T01:06:30.790Z,14.87
2022-10-22T01:09:21.274Z,14.85
2022-10-22T01:12:11.513Z,14.78
2022-10-22T01:15:21.751Z,14.69
2022-10-22T01:18:04.859Z,14.52
2022-10-22T01:21:03.640Z,14.45
2022-10-22T01:24:05.914Z,14.33
2022-10-22T01:26:37.147Z,14.24
2022-10-22T01:29:19.911Z,14.14
2022-10-22T01:31:56.453Z,14.05
2022-10-22T01:34:30.558Z,13.95
2022-10-22T01:37:03.516Z,13.86
2022-10-22T01:39:38.358Z,13.84
2022-10-22T01:42:12.384Z,13.77
2022-10-22T01:44:43.677Z,13.70
2022-10-22T01:47:39.280Z,13.65
2022-10-22T01:50:52.541Z,13.58
2022-10-22T01:53:48.452Z,13.51
2022-10-22T01:56:36.219Z,13.44
2022-10-22T01:59:17.234Z,13.38
2022-10-22T02:01:48.456Z,13.33
2022-10-22T02:04:40.601Z,13.20
2022-10-22T02:07:15.764Z,13.18
2022-10-22T02:09:49.082Z,13.15
2022-10-22T02:12:22.292Z,13.16
2022-10-22T02:14:55.514Z,13.15
2022-10-22T02:17:30.413Z,13.10
2022-10-22T02:20:08.110Z,13.10
2022-10-22T02:22:40.277Z,13.10
2022-10-22T02:25:12.366Z,13.08
2022-10-22T02:27:47.545Z,13.06
2022-10-22T02:30:21.438Z,13.03
2022-10-22T02:33:08.583Z,13.01
2022-10-22T02:35:41.956Z,12.99
2022-10-22T02:38:13.683Z,12.97
2022-10-22T02:40:45.350Z,12.95
2022-10-22T02:43:18.410Z,12.92
2022-10-22T02:45:49.691Z,12.90
2022-10-22T02:50:57.087Z,12.87
2022-10-22T02:53:28.359Z,12.80
2022-10-22T02:56:00.118Z,12.75
2022-10-22T02:58:31.378Z,12.69
2022-10-22T03:01:02.716Z,12.71
2022-10-22T03:03:33.997Z,12.72
2022-10-22T03:06:05.533Z,12.72
2022-10-22T03:08:36.847Z,12.67
2022-10-22T03:11:08.635Z,12.75
2022-10-22T03:13:39.931Z,12.76
2022-10-22T03:20:03.605Z,12.88
2022-10-22T03:22:36.456Z,12.95
2022-10-22T03:25:12.080Z,12.92
2022-10-22T03:27:44.022Z,13.06
2022-10-22T03:30:15.777Z,13.08
2022-10-22T03:32:47.150Z,13.13
2022-10-22T03:35:18.461Z,13.16
2022-10-22T03:37:50.453Z,13.20
2022-10-22T03:40:21.860Z,13.24
2022-10-22T03:42:53.279Z,13.29
2022-10-22T03:45:24.663Z,13.31
2022-10-22T03:47:56.093Z,13.30
2022-10-22T03:50:27.433Z,13.33
2022-10-22T03:52:59.596Z,13.36
2022-10-22T03:55:30.881Z,13.35
2022-10-22T03:58:02.598Z,13.41
2022-10-22T04:00:35.533Z,13.41
2022-10-22T04:03:06.822Z,13.41
2022-10-22T04:05:38.060Z,13.40
2022-10-22T04:08:09.317Z,13.39
2022-10-22T04:10:40.643Z,13.38
2022-10-22T04:13:12.277Z,13.35
2022-10-22T04:15:43.524Z,13.34
2022-10-22T04:18:14.788Z,13.32
2022-10-22T04:20:46.102Z,13.32
2022-10-22T04:23:17.351Z,13.32
2022-10-22T04:25:48.592Z,13.32
2022-10-22T04:28:19.861Z,13.33
2022-10-22T04:30:51.110Z,13.37
2022-10-22T04:33:22.911Z,13.38
2022-10-22T04:35:54.165Z,13.39
2022-10-22T04:38:25.436Z,13.38
2022-10-22T04:40:56.741Z,13.40
2022-10-22T04:43:28.007Z,13.38
2022-10-22T04:46:00.837Z,13.34
2022-10-22T04:48:32.128Z,13.36
2022-10-22T04:51:04.980Z,13.29
2022-10-22T04:53:36.611Z,13.29
2022-10-22T04:56:16.735Z,13.26
2022-10-22T04:58:49.959Z,13.22
2022-10-22T05:01:36.891Z,13.18
2022-10-22T05:04:13.981Z,13.13
2022-10-22T05:06:45.798Z,13.10
2022-10-22T05:09:19.525Z,13.05
2022-10-22T05:11:52.555Z,13.02
2022-10-22T05:14:25.074Z,12.99
2022-10-22T05:16:56.369Z,12.92
2022-10-22T05:19:29.756Z,12.94
2022-10-22T05:22:02.812Z,12.92
2022-10-22T05:24:34.392Z,12.83
2022-10-22T05:27:05.764Z,12.86
2022-10-22T05:29:37.116Z,12.84
2022-10-22T05:32:08.438Z,12.81
2022-10-22T05:34:39.685Z,12.81
2022-10-22T05:37:10.976Z,12.80
2022-10-22T05:39:42.284Z,12.79
2022-10-22T05:42:13.680Z,12.79
2022-10-22T05:44:44.991Z,12.71
2022-10-22T05:47:16.271Z,12.74
2022-10-22T05:49:47.523Z,12.72
2022-10-22T05:52:18.857Z,12.69
2022-10-22T05:54:50.229Z,12.68
2022-10-22T05:57:21.529Z,12.65
2022-10-22T05:59:52.768Z,12.60
2022-10-22T06:02:24.163Z,12.57
2022-10-22T06:04:55.580Z,12.54
2022-10-22T06:07:27.001Z,12.52
2022-10-22T06:09:59.203Z,12.47
2022-10-22T06:12:30.512Z,12.44
2022-10-22T06:15:01.779Z,12.41
2022-10-22T06:17:33.060Z,12.41
2022-10-22T06:22:36.967Z,12.38
2022-10-22T06:25:08.763Z,12.39
2022-10-22T06:27:40.065Z,12.33
2022-10-22T06:30:11.733Z,12.40
2022-10-22T06:32:43.197Z,12.40
2022-10-22T06:35:14.706Z,12.36
2022-10-22T06:37:47.365Z,12.41
2022-10-22T06:40:19.266Z,12.37
2022-10-22T06:42:50.518Z,12.41
2022-10-22T06:45:21.773Z,12.38
2022-10-22T06:47:53.665Z,12.40
2022-10-22T06:50:24.908Z,12.40
2022-10-22T06:52:56.447Z,12.41
2022-10-22T06:55:27.696Z,12.46
2022-10-22T06:57:59.014Z,12.49
2022-10-22T07:00:30.337Z,12.52
2022-10-22T07:03:01.725Z,12.56
2022-10-22T07:05:34.398Z,12.59
2022-10-22T07:08:06.011Z,12.64
2022-10-22T07:10:37.287Z,12.71
2022-10-22T07:13:08.650Z,12.78
2022-10-22T07:15:39.891Z,12.83
2022-10-22T07:18:11.300Z,12.90
2022-10-22T07:20:42.589Z,12.98
2022-10-22T07:23:13.954Z,13.08
2022-10-22T07:25:45.289Z,13.24
2022-10-22T07:28:17.048Z,13.38
2022-10-22T07:30:48.810Z,13.52
2022-10-22T07:33:20.586Z,13.64
2022-10-22T07:35:57.851Z,13.82
2022-10-22T07:38:30.038Z,13.96
2022-10-22T07:41:01.865Z,14.08
2022-10-22T07:43:33.477Z,14.22
2022-10-22T07:46:04.943Z,14.34
2022-10-22T07:48:36.908Z,14.42
2022-10-22T07:51:09.262Z,14.59
2022-10-22T07:53:40.613Z,14.71
2022-10-22T07:56:11.944Z,14.85
2022-10-22T07:58:43.265Z,14.98
2022-10-22T08:01:14.686Z,15.10
2022-10-22T08:03:45.984Z,15.19
2022-10-22T08:06:17.712Z,15.31
2022-10-22T08:08:49.378Z,15.42
2022-10-22T08:11:20.729Z,15.52
2022-10-22T08:13:52.308Z,15.61
2022-10-22T08:16:23.584Z,15.71
2022-10-22T08:18:54.861Z,15.83
2022-10-22T08:21:26.894Z,15.93
2022-10-22T08:23:58.173Z,16.01
2022-10-22T08:26:29.456Z,16.12
2022-10-22T08:29:00.743Z,16.16
2022-10-22T08:31:32.469Z,16.21
2022-10-22T08:34:05.523Z,16.26
2022-10-22T08:36:36.799Z,16.35
2022-10-22T08:39:08.147Z,16.45
2022-10-22T08:41:53.941Z,16.59
2022-10-22T08:44:37.370Z,16.76
2022-10-22T08:47:49.337Z,16.93
2022-10-22T08:50:26.874Z,17.04
2022-10-22T08:53:02.452Z,17.13
2022-10-22T08:55:37.405Z,17.20
2022-10-22T08:58:25.572Z,17.27
2022-10-22T09:01:00.622Z,17.37
2022-10-22T09:04:13.405Z,17.49
2022-10-22T09:06:44.878Z,17.60
2022-10-22T09:09:18.142Z,17.71
2022-10-22T09:11:51.685Z,17.76
2022-10-22T09:14:25.790Z,17.75
2022-10-22T09:17:20.731Z,17.79
2022-10-22T09:20:12.385Z,17.81
2022-10-22T09:22:59.620Z,17.84
2022-10-22T09:25:35.081Z,17.84
2022-10-22T09:28:08.786Z,17.86
2022-10-22T09:30:44.655Z,17.89
2022-10-22T09:33:24.817Z,17.95
2022-10-22T09:36:03.507Z,18.05
2022-10-22T09:38:44.569Z,18.19
2022-10-22T09:41:17.081Z,18.28
2022-10-22T09:43:49.175Z,18.40
2022-10-22T09:46:23.626Z,18.50
2022-10-22T09:49:06.675Z,18.58
2022-10-22T09:51:54.972Z,18.71
2022-10-22T09:54:38.408Z,18.88
2022-10-22T09:57:18.213Z,19.02
2022-10-22T09:59:51.457Z,19.06
2022-10-22T10:02:43.981Z,19.11
2022-10-22T10:05:30.239Z,19.18
2022-10-22T10:08:22.111Z,19.26
2022-10-22T10:11:05.671Z,19.37
2022-10-22T10:14:06.434Z,19.43
2022-10-22T10:17:03.801Z,19.50
2022-10-22T10:20:03.023Z,19.58
2022-10-22T10:22:56.693Z,19.65
2022-10-22T10:25:28.082Z,19.69
2022-10-22T10:28:14.477Z,19.74
2022-10-22T10:30:54.331Z,19.76
2022-10-22T10:33:40.384Z,19.74
2022-10-22T10:36:28.637Z,19.77
2022-10-22T10:39:10.250Z,19.89
2022-10-22T10:42:08.913Z,19.98
2022-10-22T10:45:09.537Z,20.04
2022-10-22T10:48:10.317Z,20.11
2022-10-22T10:51:03.805Z,20.19
2022-10-22T10:53:47.277Z,20.29
2022-10-22T10:56:39.350Z,20.35
2022-10-22T10:59:16.432Z,20.31
2022-10-22T11:01:59.927Z,20.27
2022-10-22T11:05:01.171Z,20.15
2022-10-22T11:07:40.562Z,20.04
2022-10-22T11:10:33.994Z,20.09
2022-10-22T11:13:18.836Z,20.22
2022-10-22T11:16:04.060Z,20.34
2022-10-22T11:18:48.010Z,20.42
2022-10-22T11:21:40.012Z,20.47
2022-10-22T11:24:21.966Z,20.43
2022-10-22T11:27:02.335Z,20.61
2022-10-22T11:29:40.897Z,20.75
2022-10-22T11:32:20.049Z,20.88
2022-10-22T11:34:56.345Z,21.04
2022-10-22T11:37:34.727Z,21.16
2022-10-22T11:40:14.635Z,21.26
2022-10-22T11:42:59.637Z,21.32
2022-10-22T11:45:36.108Z,21.27
2022-10-22T11:48:17.123Z,21.26
2022-10-22T11:50:50.731Z,21.18
2022-10-22T11:53:36.135Z,21.18
2022-10-22T11:56:07.479Z,21.26
2022-10-22T11:58:50.824Z,21.20
2022-10-22T12:01:28.904Z,20.98
2022-10-22T12:04:22.258Z,20.80
2022-10-22T12:07:02.049Z,20.72
2022-10-22T12:09:34.309Z,20.73
2022-10-22T12:12:15.325Z,20.74
2022-10-22T12:14:57.932Z,20.74
2022-10-22T12:17:30.957Z,20.78
2022-10-22T12:20:12.597Z,20.83
2022-10-22T12:22:44.133Z,20.87
2022-10-22T12:25:23.994Z,20.80
2022-10-22T12:27:57.983Z,20.88
2022-10-22T12:30:37.059Z,20.86
2022-10-22T12:33:19.344Z,20.82
2022-10-22T12:35:53.945Z,20.78
2022-10-22T12:38:25.660Z,20.78
2022-10-22T12:40:57.336Z,20.72
2022-10-22T12:43:30.218Z,20.67
2022-10-22T12:46:01.672Z,20.79
2022-10-22T12:48:38.738Z,20.97
2022-10-22T12:51:19.740Z,21.08
2022-10-22T12:53:54.329Z,21.28
2022-10-22T12:56:28.694Z,21.27
2022-10-22T12:59:03.069Z,21.24
2022-10-22T13:01:38.796Z,21.22
2022-10-22T13:04:13.022Z,21.34
2022-10-22T13:06:46.984Z,21.36
2022-10-22T13:09:27.064Z,21.48
2022-10-22T13:12:07.232Z,21.53
2022-10-22T13:14:38.684Z,21.51
2022-10-22T13:17:18.510Z,21.42
2022-10-22T13:20:02.025Z,21.35
2022-10-22T13:22:36.145Z,21.15
2022-10-22T13:25:13.667Z,20.90
2022-10-22T13:27:58.812Z,20.75
2022-10-22T13:30:33.820Z,20.60
2022-10-22T13:33:17.650Z,20.41
2022-10-22T13:35:49.416Z,20.24
2022-10-22T13:38:24.473Z,20.11
2022-10-22T13:40:56.636Z,20.00
2022-10-22T13:43:27.900Z,19.94
2022-10-22T13:46:00.277Z,19.99
2022-10-22T13:48:31.744Z,20.02
2022-10-22T13:51:06.651Z,20.08
2022-10-22T13:53:37.950Z,20.15
2022-10-22T13:56:13.984Z,20.17
2022-10-22T13:58:47.176Z,20.16
2022-10-22T14:01:22.735Z,20.08
2022-10-22T14:03:57.973Z,19.99
2022-10-22T14:06:33.278Z,19.90
2022-10-22T14:09:13.905Z,19.88
2022-10-22T14:11:45.274Z,19.82
2022-10-22T14:14:17.232Z,19.76
2022-10-22T14:16:48.650Z,19.69
2022-10-22T14:19:19.958Z,19.70
2022-10-22T14:21:52.199Z,19.69
2022-10-22T14:24:23.543Z,19.75
2022-10-22T14:26:54.845Z,19.74
2022-10-22T14:29:26.614Z,19.68
2022-10-22T14:31:57.962Z,19.61
2022-10-22T14:34:29.233Z,19.57
2022-10-22T14:37:00.508Z,19.48
2022-10-22T14:39:31.779Z,19.45
2022-10-22T14:42:03.182Z,19.42
2022-10-22T14:44:34.428Z,19.35
2022-10-22T14:47:06.108Z,19.30
2022-10-22T14:49:37.395Z,19.30
2022-10-22T14:52:11.675Z,19.26
2022-10-22T14:54:45.693Z,19.29
2022-10-22T14:57:17.139Z,19.23
2022-10-22T14:59:48.393Z,19.18
2022-10-22T15:02:19.652Z,19.13
2022-10-22T15:04:50.959Z,19.10
2022-10-22T15:07:24.582Z,19.07
2022-10-22T15:09:55.897Z,18.95
2022-10-22T15:12:27.650Z,18.85
2022-10-22T15:14:58.928Z,18.70
2022-10-22T15:17:30.289Z,18.53
2022-10-22T15:20:04.029Z,18.41
2022-10-22T15:22:35.729Z,18.30
2022-10-22T15:25:09.071Z,18.20
2022-10-22T15:27:40.860Z,18.17
2022-10-22T15:30:13.444Z,18.11
2022-10-22T15:32:44.721Z,18.03
2022-10-22T15:35:16.096Z,17.94
2022-10-22T15:37:51.420Z,17.86
2022-10-22T15:40:22.727Z,17.81
2022-10-22T15:42:54.475Z,17.79
2022-10-22T15:45:25.729Z,17.71
2022-10-22T15:47:57.011Z,17.71
2022-10-22T15:50:28.358Z,17.68
2022-10-22T15:53:00.107Z,17.67
2022-10-22T15:55:31.558Z,17.63
2022-10-22T15:58:04.188Z,17.61
2022-10-22T16:00:35.729Z,17.58
2022-10-22T16:03:07.686Z,17.55
2022-10-22T16:05:39.035Z,17.53
2022-10-22T16:08:10.313Z,17.50
2022-10-22T16:10:45.859Z,17.49
2022-10-22T16:13:17.167Z,17.50
2022-10-22T16:15:48.421Z,17.42
2022-10-22T16:18:20.437Z,17.42
2022-10-22T16:20:51.792Z,17.38
2022-10-22T16:23:23.340Z,17.33
2022-10-22T16:25:54.625Z,17.30
2022-10-22T16:28:25.922Z,17.20
2022-10-22T16:31:01.590Z,17.18
2022-10-22T16:33:41.283Z,17.14
2022-10-22T16:36:18.855Z,17.08
2022-10-22T16:38:50.410Z,17.08
2022-10-22T16:41:24.456Z,17.05
2022-10-22T16:43:55.810Z,17.05
2022-10-22T16:46:27.081Z,17.05
2022-10-22T16:48:58.743Z,17.04
2022-10-22T16:51:30.171Z,17.00
2022-10-22T16:54:01.562Z,16.98
2022-10-22T16:56:36.287Z,17.01
2022-10-22T16:59:07.964Z,16.96
2022-10-22T17:01:41.296Z,17.00
2022-10-22T17:04:12.847Z,16.95
2022-10-22T17:06:44.133Z,17.00
2022-10-22T17:09:15.811Z,16.96
2022-10-22T17:11:47.324Z,16.95
2022-10-22T17:14:18.623Z,16.84
2022-10-22T17:16:53.568Z,16.79
2022-10-22T17:19:24.919Z,16.72
2022-10-22T17:21:56.196Z,16.67
2022-10-22T17:24:27.478Z,16.60
2022-10-22T17:26:58.810Z,16.56
2022-10-22T17:29:30.120Z,16.51
2022-10-22T17:32:01.953Z,16.52
2022-10-22T17:34:33.841Z,16.48
2022-10-22T17:37:05.138Z,16.57
2022-10-22T17:39:36.445Z,16.59
2022-10-22T17:42:07.752Z,16.59
2022-10-22T17:44:39.016Z,16.61
2022-10-22T17:47:10.282Z,16.61
2022-10-22T17:49:41.658Z,16.63
2022-10-22T17:52:14.331Z,16.58
2022-10-22T17:54:48.386Z,16.63
2022-10-22T17:57:19.891Z,16.60
2022-10-22T17:59:51.312Z,16.52
2022-10-22T18:02:22.617Z,16.47
2022-10-22T18:04:54.096Z,16.46
2022-10-22T18:07:25.430Z,16.44
2022-10-22T18:09:56.771Z,16.45
2022-10-22T18:12:28.063Z,16.44
2022-10-22T18:14:59.331Z,16.44
2022-10-22T18:17:31.840Z,16.43
2022-10-22T18:20:05.330Z,16.41
2022-10-22T18:22:36.605Z,16.39
2022-10-22T18:25:09.053Z,16.39
2022-10-22T18:27:40.785Z,16.34
2022-10-22T18:30:12.596Z,16.40
2022-10-22T18:32:43.839Z,16.40
2022-10-22T18:35:15.174Z,16.41
2022-10-22T18:37:46.567Z,16.41
2022-10-22T18:40:17.978Z,16.41
2022-10-22T18:42:49.278Z,16.36
2022-10-22T18:45:20.588Z,16.26
2022-10-22T18:47:51.828Z,16.17
2022-10-22T18:50:23.145Z,16.14
2022-10-22T18:52:54.575Z,16.10
2022-10-22T18:55:25.887Z,16.01
2022-10-22T18:57:57.186Z,16.06
2022-10-22T19:00:28.497Z,16.07
2022-10-22T19:02:59.749Z,16.03
2022-10-22T19:05:31.687Z,16.05
2022-10-22T19:08:03.615Z,16.11
2022-10-22T19:10:34.989Z,16.12
2022-10-22T19:13:06.375Z,16.14
2022-10-22T19:15:37.666Z,16.15
2022-10-22T19:18:09.170Z,16.14
2022-10-22T19:20:40.789Z,16.14
2022-10-22T19:23:12.048Z,16.13
2022-10-22T19:25:43.369Z,16.11
2022-10-22T19:28:14.652Z,16.10
2022-10-22T19:30:45.932Z,16.09
2022-10-22T19:33:17.311Z,16.08
2022-10-22T19:35:48.871Z,16.09
2022-10-22T19:38:20.324Z,16.08
2022-10-22T19:40:51.756Z,16.08
2022-10-22T19:43:23.071Z,16.08
2022-10-22T19:45:55.404Z,16.12
2022-10-22T19:48:28.608Z,16.11
2022-10-22T19:51:03.012Z,16.06
2022-10-22T19:53:35.684Z,16.09
2022-10-22T19:56:12.501Z,16.07
2022-10-22T19:58:43.850Z,16.05
2022-10-22T20:01:17.578Z,16.06
2022-10-22T20:03:49.148Z,16.04
2022-10-22T20:06:21.886Z,16.01
2022-10-22T20:08:59.228Z,15.99
2022-10-22T20:11:30.557Z,15.96
2022-10-22T20:14:02.216Z,15.94
2022-10-22T20:16:33.667Z,15.86
2022-10-22T20:19:07.306Z,15.82
2022-10-22T20:21:40.234Z,15.73
2022-10-22T20:24:12.051Z,15.60
2022-10-22T20:26:46.177Z,15.56
2022-10-22T20:29:18.986Z,15.48
2022-10-22T20:31:50.370Z,15.40
2022-10-22T20:34:21.677Z,15.25
2022-10-22T20:36:52.954Z,15.20
2022-10-22T20:39:24.223Z,15.04
2022-10-22T20:41:55.513Z,15.00
2022-10-22T20:44:26.798Z,14.89
2022-10-22T20:49:34.302Z,14.69
2022-10-22T20:52:05.813Z,14.58
2022-10-22T20:54:43.951Z,14.47
2022-10-22T20:57:15.425Z,14.34
2022-10-22T20:59:46.836Z,14.25
2022-10-22T21:02:18.253Z,14.18
2022-10-22T21:04:49.569Z,14.07
2022-10-22T21:07:20.939Z,13.99
2022-10-22T21:09:52.242Z,13.89
2022-10-22T21:12:23.530Z,13.80
2022-10-22T21:14:54.809Z,13.68
2022-10-22T21:17:26.129Z,13.65
2022-10-22T21:19:57.504Z,13.57
2022-10-22T21:22:28.813Z,13.50
2022-10-22T21:25:00.083Z,13.45
2022-10-22T21:27:31.338Z,13.33
2022-10-22T21:30:02.776Z,13.30
2022-10-22T21:32:34.054Z,13.23
2022-10-22T21:35:05.687Z,13.15
2022-10-22T21:37:36.999Z,13.08
2022-10-22T21:40:08.896Z,13.03
2022-10-22T21:42:40.192Z,13.00
2022-10-22T21:45:14.157Z,12.96
2022-10-22T21:47:46.088Z,12.92
2022-10-22T21:50:17.366Z,12.89
2022-10-22T21:52:48.676Z,12.84
2022-10-22T21:55:19.938Z,12.80
2022-10-22T21:57:51.243Z,12.73
2022-10-22T22:00:22.624Z,12.66
2022-10-22T22:02:53.885Z,12.65
2022-10-22T22:05:25.236Z,12.57
2022-10-22T22:07:56.552Z,12.54
2022-10-22T22:10:27.861Z,12.41
2022-10-22T22:12:59.128Z,12.46
2022-10-22T22:15:31.545Z,12.46
2022-10-22T22:18:02.890Z,12.45
2022-10-22T22:20:34.238Z,12.47
2022-10-22T22:23:05.512Z,12.51
2022-10-22T22:25:36.767Z,12.49
2022-10-22T22:28:08.098Z,12.49
2022-10-22T22:30:39.395Z,12.46
2022-10-22T22:33:11.017Z,12.38
2022-10-22T22:35:42.276Z,12.36
2022-10-22T22:38:13.543Z,12.30
2022-10-22T22:40:44.857Z,12.23
2022-10-22T22:43:16.208Z,12.23
2022-10-22T22:45:47.449Z,12.20
2022-10-22T22:48:19.137Z,12.19
2022-10-22T22:50:50.401Z,12.17
2022-10-22T22:53:22.029Z,12.16
2022-10-22T22:56:23.958Z,12.15
2022-10-22T22:58:55.635Z,12.12
2022-10-22T23:01:32.503Z,12.08
2022-10-22T23:04:11.641Z,12.03
2022-10-22T23:06:43.004Z,11.99
2022-10-22T23:09:16.388Z,11.94
2022-10-22T23:11:47.894Z,11.83
2022-10-22T23:14:19.676Z,11.84
2022-10-22T23:16:52.937Z,11.78
2022-10-22T23:19:24.295Z,11.74
2022-10-22T23:21:55.752Z,11.63
2022-10-22T23:24:29.373Z,11.65
2022-10-22T23:27:02.225Z,11.63
2022-10-22T23:29:36.295Z,11.60
2022-10-22T23:32:14.177Z,11.56
2022-10-22T23:34:45.424Z,11.44
2022-10-22T23:37:16.687Z,11.47
2022-10-22T23:39:47.964Z,11.42
2022-10-22T23:42:19.288Z,11.39
2022-10-22T23:44:50.562Z,11.35
2022-10-22T23:47:21.830Z,11.30
2022-10-22T23:49:53.213Z,11.28
2022-10-22T23:52:24.491Z,11.25
2022-10-22T23:54:55.745Z,11.22
2022-10-22T23:57:27.057Z,11.17
2022-10-22T23:59:58.317Z,11.13
